sensor_id;sensor_type;location;lat;lon;timestamp;pressure;altitude;pressure_sealevel;temperature;humidity
80500;BME280;69823;54.120;-4.710;2023-06-26T00:01:44;99776.67;;;29.73;25.10
80500;BME280;69823;54.120;-4.710;2023-06-26T00:04:09;99779.72;;;29.72;25.09
80500;BME280;69823;54.120;-4.710;2023-06-26T00:06:35;99779.82;;;29.47;25.08
80500;BME280;69823;54.120;-4.710;2023-06-26T00:09:01;99779.66;;;29.68;25.07
80500;BME280;69823;54.120;-4.710;2023-06-26T00:11:26;99777.76;;;29.43;25.06
80500;BME280;69823;54.120;-4.710;2023-06-26T00:13:52;99774.10;;;29.64;25.06
80500;BME280;69823;54.120;-4.710;2023-06-26T00:16:18;99770.32;;;29.62;25.03
80500;BME280;69823;54.120;-4.710;2023-06-26T00:18:43;99772.94;;;29.34;25.03
80500;BME280;69823;54.120;-4.710;2023-06-26T00:21:09;99776.84;;;29.58;24.98
80500;BME280;69823;54.120;-4.710;2023-06-26T00:23:34;99778.47;;;29.11;24.96
80500;BME280;69823;54.120;-4.710;2023-06-26T00:26:00;99778.62;;;29.57;24.94
80500;BME280;69823;54.120;-4.710;2023-06-26T00:28:26;99777.29;;;29.57;24.94
80500;BME280;69823;54.120;-4.710;2023-06-26T00:30:52;99775.49;;;29.55;24.94
80500;BME280;69823;54.120;-4.710;2023-06-26T00:33:17;99777.01;;;29.57;24.91
80500;BME280;69823;54.120;-4.710;2023-06-26T00:35:43;99781.19;;;29.55;24.90
80500;BME280;69823;54.120;-4.710;2023-06-26T00:38:08;99783.69;;;29.55;24.88
80500;BME280;69823;54.120;-4.710;2023-06-26T00:40:34;99786.54;;;29.55;24.85
80500;BME280;69823;54.120;-4.710;2023-06-26T00:43:00;99784.53;;;29.52;24.84
80500;BME280;69823;54.120;-4.710;2023-06-26T00:45:25;99788.53;;;29.50;24.84
80500;BME280;69823;54.120;-4.710;2023-06-26T00:47:51;99790.18;;;29.49;24.83
80500;BME280;69823;54.120;-4.710;2023-06-26T00:50:17;99785.95;;;29.49;24.81
80500;BME280;69823;54.120;-4.710;2023-06-26T00:52:42;99790.64;;;29.44;24.82
80500;BME280;69823;54.120;-4.710;2023-06-26T00:55:08;99789.91;;;29.66;24.81
80500;BME280;69823;54.120;-4.710;2023-06-26T00:57:33;99789.48;;;29.41;24.81
80500;BME280;69823;54.120;-4.710;2023-06-26T01:00:01;99791.04;;;29.42;24.79
80500;BME280;69823;54.120;-4.710;2023-06-26T01:02:24;99793.01;;;29.40;24.79
80500;BME280;69823;54.120;-4.710;2023-06-26T01:04:51;99793.43;;;29.16;24.75
80500;BME280;69823;54.120;-4.710;2023-06-26T01:07:16;99795.86;;;29.40;24.73
80500;BME280;69823;54.120;-4.710;2023-06-26T01:09:42;99798.73;;;29.38;24.73
80500;BME280;69823;54.120;-4.710;2023-06-26T01:12:07;99800.84;;;29.33;24.75
80500;BME280;69823;54.120;-4.710;2023-06-26T01:14:34;99805.31;;;29.31;24.76
80500;BME280;69823;54.120;-4.710;2023-06-26T01:17:00;99806.96;;;29.07;24.73
80500;BME280;69823;54.120;-4.710;2023-06-26T01:19:26;99806.31;;;29.31;24.70
80500;BME280;69823;54.120;-4.710;2023-06-26T01:21:50;99803.55;;;29.29;24.70
80500;BME280;69823;54.120;-4.710;2023-06-26T01:24:17;99805.86;;;29.30;24.67
80500;BME280;69823;54.120;-4.710;2023-06-26T01:26:41;99807.36;;;29.32;24.62
80500;BME280;69823;54.120;-4.710;2023-06-26T01:29:07;99809.93;;;29.52;24.62
80500;BME280;69823;54.120;-4.710;2023-06-26T01:31:32;99811.77;;;29.27;24.64
80500;BME280;69823;54.120;-4.710;2023-06-26T01:33:59;99812.96;;;29.00;24.62
80500;BME280;69823;54.120;-4.710;2023-06-26T01:36:23;99820.88;;;29.21;24.64
80500;BME280;69823;54.120;-4.710;2023-06-26T01:38:49;99823.90;;;29.19;24.64
80500;BME280;69823;54.120;-4.710;2023-06-26T01:41:15;99819.97;;;29.18;24.64
80500;BME280;69823;54.120;-4.710;2023-06-26T01:43:51;99816.56;;;29.16;24.63
80500;BME280;69823;54.120;-4.710;2023-06-26T01:46:21;99822.39;;;29.18;24.60
80500;BME280;69823;54.120;-4.710;2023-06-26T01:48:36;99824.82;;;29.19;24.54
80500;BME280;69823;54.120;-4.710;2023-06-26T01:50:58;99824.10;;;29.42;24.52
80500;BME280;69823;54.120;-4.710;2023-06-26T01:53:25;99826.65;;;29.14;24.54
80500;BME280;69823;54.120;-4.710;2023-06-26T01:55:51;99825.30;;;29.36;24.55
80500;BME280;69823;54.120;-4.710;2023-06-26T01:58:15;99828.67;;;29.12;24.53
80500;BME280;69823;54.120;-4.710;2023-06-26T02:00:40;99831.06;;;28.84;24.54
80500;BME280;69823;54.120;-4.710;2023-06-26T02:03:06;99831.98;;;29.06;24.55
80500;BME280;69823;54.120;-4.710;2023-06-26T02:05:31;99834.06;;;29.08;24.53
80500;BME280;69823;54.120;-4.710;2023-06-26T02:07:57;99828.93;;;29.31;24.53
80500;BME280;69823;54.120;-4.710;2023-06-26T02:10:23;99828.75;;;29.05;24.53
80500;BME280;69823;54.120;-4.710;2023-06-26T02:12:48;99831.32;;;29.05;24.52
80500;BME280;69823;54.120;-4.710;2023-06-26T02:15:14;99832.32;;;29.05;24.51
80500;BME280;69823;54.120;-4.710;2023-06-26T02:17:40;99829.35;;;29.30;24.48
80500;BME280;69823;54.120;-4.710;2023-06-26T02:20:06;99831.95;;;29.06;24.46
80500;BME280;69823;54.120;-4.710;2023-06-26T02:22:31;99831.11;;;29.01;24.47
80500;BME280;69823;54.120;-4.710;2023-06-26T02:24:57;99832.48;;;29.00;24.48
80500;BME280;69823;54.120;-4.710;2023-06-26T02:27:22;99835.97;;;29.23;24.47
80500;BME280;69823;54.120;-4.710;2023-06-26T02:29:48;99837.58;;;29.00;24.45
80500;BME280;69823;54.120;-4.710;2023-06-26T02:32:14;99832.85;;;28.98;24.44
80500;BME280;69823;54.120;-4.710;2023-06-26T02:34:39;99839.47;;;29.22;24.42
80500;BME280;69823;54.120;-4.710;2023-06-26T02:37:05;99841.89;;;29.21;24.39
80500;BME280;69823;54.120;-4.710;2023-06-26T02:39:31;99844.99;;;28.97;24.38
80500;BME280;69823;54.120;-4.710;2023-06-26T02:41:56;99845.02;;;29.16;24.41
80500;BME280;69823;54.120;-4.710;2023-06-26T02:44:22;99843.40;;;28.88;24.43
80500;BME280;69823;54.120;-4.710;2023-06-26T02:46:48;99845.51;;;29.12;24.43
80500;BME280;69823;54.120;-4.710;2023-06-26T02:49:13;99840.99;;;28.90;24.41
80500;BME280;69823;54.120;-4.710;2023-06-26T02:51:39;99843.18;;;28.88;24.41
80500;BME280;69823;54.120;-4.710;2023-06-26T02:54:05;99833.91;;;28.89;24.39
80500;BME280;69823;54.120;-4.710;2023-06-26T02:56:30;99839.01;;;29.14;24.36
80500;BME280;69823;54.120;-4.710;2023-06-26T02:58:56;99839.24;;;28.91;24.34
80500;BME280;69823;54.120;-4.710;2023-06-26T03:01:22;99838.79;;;28.89;24.34
80500;BME280;69823;54.120;-4.710;2023-06-26T03:03:47;99842.30;;;29.12;24.33
80500;BME280;69823;54.120;-4.710;2023-06-26T03:06:13;99846.84;;;29.09;24.32
80500;BME280;69823;54.120;-4.710;2023-06-26T03:08:39;99842.23;;;29.06;24.33
80500;BME280;69823;54.120;-4.710;2023-06-26T03:11:04;99841.33;;;29.06;24.31
80500;BME280;69823;54.120;-4.710;2023-06-26T03:13:30;99843.56;;;29.08;24.27
80500;BME280;69823;54.120;-4.710;2023-06-26T03:15:56;99845.53;;;29.29;24.29
80500;BME280;69823;54.120;-4.710;2023-06-26T03:18:21;99848.59;;;28.79;24.29
80500;BME280;69823;54.120;-4.710;2023-06-26T03:20:47;99848.13;;;28.77;24.31
80500;BME280;69823;54.120;-4.710;2023-06-26T03:23:13;99847.88;;;28.77;24.30
80500;BME280;69823;54.120;-4.710;2023-06-26T03:25:39;99852.98;;;28.76;24.30
80500;BME280;69823;54.120;-4.710;2023-06-26T03:28:04;99855.82;;;29.22;24.31
80500;BME280;69823;54.120;-4.710;2023-06-26T03:30:30;99863.85;;;28.72;24.31
80500;BME280;69823;54.120;-4.710;2023-06-26T03:32:55;99866.45;;;28.96;24.29
80500;BME280;69823;54.120;-4.710;2023-06-26T03:35:21;99869.29;;;28.95;24.29
80500;BME280;69823;54.120;-4.710;2023-06-26T03:37:47;99868.61;;;28.93;24.30
80500;BME280;69823;54.120;-4.710;2023-06-26T03:40:12;99863.94;;;29.16;24.29
80500;BME280;69823;54.120;-4.710;2023-06-26T03:42:38;99868.78;;;28.93;24.28
80500;BME280;69823;54.120;-4.710;2023-06-26T03:45:04;99869.86;;;28.70;24.26
80500;BME280;69823;54.120;-4.710;2023-06-26T03:47:29;99875.86;;;28.94;24.25
80500;BME280;69823;54.120;-4.710;2023-06-26T03:49:55;99878.12;;;28.91;24.26
80500;BME280;69823;54.120;-4.710;2023-06-26T03:52:20;99882.48;;;28.93;24.24
80500;BME280;69823;54.120;-4.710;2023-06-26T03:54:46;99884.53;;;28.69;24.24
80500;BME280;69823;54.120;-4.710;2023-06-26T03:57:12;99888.35;;;28.93;24.23
80500;BME280;69823;54.120;-4.710;2023-06-26T03:59:37;99893.84;;;28.93;24.22
80500;BME280;69823;54.120;-4.710;2023-06-26T04:02:03;99889.65;;;28.89;24.23
80500;BME280;69823;54.120;-4.710;2023-06-26T04:04:29;99884.26;;;28.86;24.25
80500;BME280;69823;54.120;-4.710;2023-06-26T04:06:55;99880.81;;;28.85;24.24
80500;BME280;69823;54.120;-4.710;2023-06-26T04:09:20;99891.07;;;29.08;24.26
80500;BME280;69823;54.120;-4.710;2023-06-26T04:11:46;99892.13;;;28.61;24.24
80500;BME280;69823;54.120;-4.710;2023-06-26T04:14:12;99894.31;;;28.63;24.22
80500;BME280;69823;54.120;-4.710;2023-06-26T04:16:37;99894.66;;;28.86;24.22
80500;BME280;69823;54.120;-4.710;2023-06-26T04:19:03;99900.83;;;28.85;24.21
80500;BME280;69823;54.120;-4.710;2023-06-26T04:21:29;99903.14;;;28.59;24.21
80500;BME280;69823;54.120;-4.710;2023-06-26T04:23:54;99902.05;;;28.80;24.23
80500;BME280;69823;54.120;-4.710;2023-06-26T04:26:20;99903.44;;;28.79;24.23
80500;BME280;69823;54.120;-4.710;2023-06-26T04:28:46;99905.73;;;28.58;24.20
80500;BME280;69823;54.120;-4.710;2023-06-26T04:31:11;99903.15;;;28.80;24.21
80500;BME280;69823;54.120;-4.710;2023-06-26T04:33:37;99907.31;;;28.79;24.20
80500;BME280;69823;54.120;-4.710;2023-06-26T04:36:03;99908.56;;;29.02;24.20
80500;BME280;69823;54.120;-4.710;2023-06-26T04:38:28;99906.56;;;28.78;24.19
80500;BME280;69823;54.120;-4.710;2023-06-26T04:40:54;99905.39;;;28.75;24.18
80500;BME280;69823;54.120;-4.710;2023-06-26T04:43:20;99905.39;;;28.74;24.19
80500;BME280;69823;54.120;-4.710;2023-06-26T04:45:45;99904.27;;;28.98;24.18
80500;BME280;69823;54.120;-4.710;2023-06-26T04:48:11;99907.14;;;28.75;24.18
80500;BME280;69823;54.120;-4.710;2023-06-26T04:50:37;99909.11;;;28.73;24.19
80500;BME280;69823;54.120;-4.710;2023-06-26T04:53:02;99911.40;;;28.73;24.19
80500;BME280;69823;54.120;-4.710;2023-06-26T04:55:28;99913.23;;;28.69;24.20
80500;BME280;69823;54.120;-4.710;2023-06-26T04:57:54;99914.11;;;28.94;24.18
80500;BME280;69823;54.120;-4.710;2023-06-26T05:00:19;99911.98;;;28.69;24.18
80500;BME280;69823;54.120;-4.710;2023-06-26T05:02:45;99910.64;;;28.91;24.22
80500;BME280;69823;54.120;-4.710;2023-06-26T05:05:11;99910.48;;;28.65;24.18
80500;BME280;69823;54.120;-4.710;2023-06-26T05:07:37;99914.26;;;28.65;24.16
80500;BME280;69823;54.120;-4.710;2023-06-26T05:10:02;99919.03;;;28.90;24.16
80500;BME280;69823;54.120;-4.710;2023-06-26T05:12:28;99923.60;;;28.66;24.15
80500;BME280;69823;54.120;-4.710;2023-06-26T05:14:53;99924.57;;;28.90;24.14
80500;BME280;69823;54.120;-4.710;2023-06-26T05:17:19;99922.79;;;28.63;24.14
80500;BME280;69823;54.120;-4.710;2023-06-26T05:19:45;99924.39;;;28.40;24.13
80500;BME280;69823;54.120;-4.710;2023-06-26T05:22:12;99919.96;;;28.39;24.14
80500;BME280;69823;54.120;-4.710;2023-06-26T05:24:37;99922.15;;;28.38;24.13
80500;BME280;69823;54.120;-4.710;2023-06-26T05:27:02;99924.12;;;28.86;24.14
80500;BME280;69823;54.120;-4.710;2023-06-26T05:29:29;99929.01;;;28.63;24.12
80500;BME280;69823;54.120;-4.710;2023-06-26T05:31:56;99929.06;;;28.88;24.12
80500;BME280;69823;54.120;-4.710;2023-06-26T05:34:20;99920.16;;;28.67;24.08
80500;BME280;69823;54.120;-4.710;2023-06-26T05:36:44;99918.29;;;28.67;24.02
80500;BME280;69823;54.120;-4.710;2023-06-26T05:39:10;99924.58;;;28.66;23.98
80500;BME280;69823;54.120;-4.710;2023-06-26T05:41:36;99925.78;;;28.67;23.93
80500;BME280;69823;54.120;-4.710;2023-06-26T05:44:01;99924.87;;;28.65;23.90
80500;BME280;69823;54.120;-4.710;2023-06-26T05:46:27;99928.82;;;28.66;23.87
80500;BME280;69823;54.120;-4.710;2023-06-26T05:48:53;99928.11;;;28.64;23.86
80500;BME280;69823;54.120;-4.710;2023-06-26T05:51:19;99925.47;;;28.57;23.88
80500;BME280;69823;54.120;-4.710;2023-06-26T05:53:45;99925.03;;;28.87;23.79
80500;BME280;69823;54.120;-4.710;2023-06-26T05:56:11;99932.67;;;28.90;23.73
80500;BME280;69823;54.120;-4.710;2023-06-26T05:58:36;99933.80;;;28.80;23.81
80500;BME280;69823;54.120;-4.710;2023-06-26T06:01:01;99936.41;;;28.73;23.85
80500;BME280;69823;54.120;-4.710;2023-06-26T06:03:27;99930.47;;;28.66;23.88
80500;BME280;69823;54.120;-4.710;2023-06-26T06:05:53;99946.75;;;28.61;23.89
80500;BME280;69823;54.120;-4.710;2023-06-26T06:08:18;99944.68;;;28.26;23.98
80500;BME280;69823;54.120;-4.710;2023-06-26T06:10:44;99946.51;;;28.48;24.00
80500;BME280;69823;54.120;-4.710;2023-06-26T06:13:10;99944.73;;;28.44;24.01
80500;BME280;69823;54.120;-4.710;2023-06-26T06:15:35;99948.11;;;28.42;24.00
80500;BME280;69823;54.120;-4.710;2023-06-26T06:18:01;99955.99;;;28.44;23.95
80500;BME280;69823;54.120;-4.710;2023-06-26T06:20:27;99964.05;;;28.43;23.94
80500;BME280;69823;54.120;-4.710;2023-06-26T06:22:52;99963.79;;;28.45;23.92
80500;BME280;69823;54.120;-4.710;2023-06-26T06:25:18;99965.56;;;28.41;24.00
80500;BME280;69823;54.120;-4.710;2023-06-26T06:27:44;99965.61;;;28.42;23.95
80500;BME280;69823;54.120;-4.710;2023-06-26T06:30:11;99968.11;;;28.38;23.95
80500;BME280;69823;54.120;-4.710;2023-06-26T06:32:35;99964.62;;;28.40;23.94
80500;BME280;69823;54.120;-4.710;2023-06-26T06:35:01;99965.96;;;28.38;23.95
80500;BME280;69823;54.120;-4.710;2023-06-26T06:37:27;99966.46;;;28.38;23.94
80500;BME280;69823;54.120;-4.710;2023-06-26T06:39:52;99969.47;;;28.37;23.91
80500;BME280;69823;54.120;-4.710;2023-06-26T06:42:18;99966.72;;;28.36;23.89
80500;BME280;69823;54.120;-4.710;2023-06-26T06:44:44;99966.18;;;28.34;23.90
80500;BME280;69823;54.120;-4.710;2023-06-26T06:47:09;99969.25;;;28.30;23.91
80500;BME280;69823;54.120;-4.710;2023-06-26T06:49:35;99972.08;;;28.25;23.95
80500;BME280;69823;54.120;-4.710;2023-06-26T06:52:01;99975.74;;;28.21;23.98
80500;BME280;69823;54.120;-4.710;2023-06-26T06:54:27;99975.48;;;28.44;23.99
80500;BME280;69823;54.120;-4.710;2023-06-26T06:56:52;99978.24;;;28.21;23.97
80500;BME280;69823;54.120;-4.710;2023-06-26T06:59:18;99982.98;;;28.24;23.93
80500;BME280;69823;54.120;-4.710;2023-06-26T07:01:44;99986.97;;;28.23;23.92
80500;BME280;69823;54.120;-4.710;2023-06-26T07:04:09;99994.12;;;28.23;23.93
80500;BME280;69823;54.120;-4.710;2023-06-26T07:06:35;99994.83;;;28.21;23.95
80500;BME280;69823;54.120;-4.710;2023-06-26T07:09:01;100000.53;;;28.12;23.99
80500;BME280;69823;54.120;-4.710;2023-06-26T07:11:26;100008.47;;;28.01;24.12
80500;BME280;69823;54.120;-4.710;2023-06-26T07:13:52;100006.55;;;27.98;24.18
80500;BME280;69823;54.120;-4.710;2023-06-26T07:16:18;100005.73;;;28.01;24.15
80500;BME280;69823;54.120;-4.710;2023-06-26T07:18:43;100008.36;;;28.05;24.10
80500;BME280;69823;54.120;-4.710;2023-06-26T07:21:19;100013.33;;;28.06;24.13
80500;BME280;69823;54.120;-4.710;2023-06-26T07:23:35;100013.23;;;28.03;24.12
80500;BME280;69823;54.120;-4.710;2023-06-26T07:26:01;100014.51;;;28.09;24.06
80500;BME280;69823;54.120;-4.710;2023-06-26T07:28:26;100018.50;;;28.09;24.05
80500;BME280;69823;54.120;-4.710;2023-06-26T07:30:52;100023.12;;;28.06;24.07
80500;BME280;69823;54.120;-4.710;2023-06-26T07:33:18;100026.79;;;28.07;24.08
80500;BME280;69823;54.120;-4.710;2023-06-26T07:35:43;100022.15;;;27.95;24.15
80500;BME280;69823;54.120;-4.710;2023-06-26T07:38:09;100012.80;;;27.91;24.21
80500;BME280;69823;54.120;-4.710;2023-06-26T07:40:35;100013.56;;;27.92;24.21
80500;BME280;69823;54.120;-4.710;2023-06-26T07:43:01;100011.86;;;27.98;24.17
80500;BME280;69823;54.120;-4.710;2023-06-26T07:45:26;100016.47;;;28.00;24.15
80500;BME280;69823;54.120;-4.710;2023-06-26T07:47:52;100019.16;;;27.91;24.22
80500;BME280;69823;54.120;-4.710;2023-06-26T07:50:18;100023.75;;;28.06;24.32
80500;BME280;69823;54.120;-4.710;2023-06-26T07:52:43;100021.50;;;27.71;24.39
80500;BME280;69823;54.120;-4.710;2023-06-26T07:55:09;100016.84;;;27.60;24.50
80500;BME280;69823;54.120;-4.710;2023-06-26T07:57:35;100026.92;;;27.85;24.49
80500;BME280;69823;54.120;-4.710;2023-06-26T08:00:00;100030.64;;;27.74;24.40
80500;BME280;69823;54.120;-4.710;2023-06-26T08:02:26;100025.47;;;27.77;24.36
80500;BME280;69823;54.120;-4.710;2023-06-26T08:04:52;100025.84;;;28.02;24.29
80500;BME280;69823;54.120;-4.710;2023-06-26T08:07:17;100022.98;;;28.06;24.23
80500;BME280;69823;54.120;-4.710;2023-06-26T08:09:43;100031.64;;;27.77;24.24
80500;BME280;69823;54.120;-4.710;2023-06-26T08:12:09;100032.89;;;27.83;24.18
80500;BME280;69823;54.120;-4.710;2023-06-26T08:14:35;100038.97;;;27.88;24.10
80500;BME280;69823;54.120;-4.710;2023-06-26T08:17:00;100040.67;;;27.85;24.10
80500;BME280;69823;54.120;-4.710;2023-06-26T08:19:26;100038.96;;;27.81;24.09
80500;BME280;69823;54.120;-4.710;2023-06-26T08:21:52;100033.29;;;27.83;24.04
80500;BME280;69823;54.120;-4.710;2023-06-26T08:24:17;100038.83;;;28.10;24.01
80500;BME280;69823;54.120;-4.710;2023-06-26T08:26:44;100047.96;;;28.29;24.03
80500;BME280;69823;54.120;-4.710;2023-06-26T08:29:08;100048.60;;;27.76;24.07
80500;BME280;69823;54.120;-4.710;2023-06-26T08:31:34;100051.27;;;27.96;24.09
80500;BME280;69823;54.120;-4.710;2023-06-26T08:34:00;100049.04;;;27.73;24.05
80500;BME280;69823;54.120;-4.710;2023-06-26T08:36:26;100051.67;;;27.74;24.02
80500;BME280;69823;54.120;-4.710;2023-06-26T08:38:51;100050.97;;;27.77;23.99
80500;BME280;69823;54.120;-4.710;2023-06-26T08:41:17;100054.60;;;28.24;24.00
80500;BME280;69823;54.120;-4.710;2023-06-26T08:43:43;100051.54;;;27.71;24.02
80500;BME280;69823;54.120;-4.710;2023-06-26T08:46:08;100050.70;;;27.64;24.07
80500;BME280;69823;54.120;-4.710;2023-06-26T08:48:35;100051.23;;;27.60;24.10
80500;BME280;69823;54.120;-4.710;2023-06-26T08:51:01;100051.51;;;27.86;24.07
80500;BME280;69823;54.120;-4.710;2023-06-26T08:53:29;100051.85;;;27.65;24.05
80500;BME280;69823;54.120;-4.710;2023-06-26T08:55:52;100050.79;;;27.55;24.12
80500;BME280;69823;54.120;-4.710;2023-06-26T08:58:17;100053.23;;;27.69;24.46
80500;BME280;69823;54.120;-4.710;2023-06-26T09:00:43;100049.11;;;27.14;24.74
80500;BME280;69823;54.120;-4.710;2023-06-26T09:03:09;100041.25;;;27.11;25.05
80500;BME280;69823;54.120;-4.710;2023-06-26T09:05:34;100058.65;;;26.70;25.32
80500;BME280;69823;54.120;-4.710;2023-06-26T09:08:00;100056.81;;;26.62;25.39
80500;BME280;69823;54.120;-4.710;2023-06-26T09:10:26;100057.59;;;26.98;25.53
80500;BME280;69823;54.120;-4.710;2023-06-26T09:12:55;100060.44;;;26.53;25.63
80500;BME280;69823;54.120;-4.710;2023-06-26T09:15:19;100066.39;;;26.48;25.66
80500;BME280;69823;54.120;-4.710;2023-06-26T09:17:43;100070.24;;;26.34;25.83
80500;BME280;69823;54.120;-4.710;2023-06-26T09:20:09;100071.67;;;26.37;25.87
80500;BME280;69823;54.120;-4.710;2023-06-26T09:22:36;100079.10;;;26.59;25.77
80500;BME280;69823;54.120;-4.710;2023-06-26T09:25:00;100081.97;;;26.36;25.79
80500;BME280;69823;54.120;-4.710;2023-06-26T09:27:26;100085.32;;;26.50;25.93
80500;BME280;69823;54.120;-4.710;2023-06-26T09:29:51;100085.35;;;26.17;25.99
80500;BME280;69823;54.120;-4.710;2023-06-26T09:32:17;100089.63;;;26.51;25.95
80500;BME280;69823;54.120;-4.710;2023-06-26T09:34:43;100091.75;;;26.50;25.88
80500;BME280;69823;54.120;-4.710;2023-06-26T09:37:11;100087.38;;;26.47;25.59
80500;BME280;69823;54.120;-4.710;2023-06-26T09:39:34;100092.33;;;26.80;25.47
80500;BME280;69823;54.120;-4.710;2023-06-26T09:42:00;100095.82;;;26.84;25.41
80500;BME280;69823;54.120;-4.710;2023-06-26T09:44:26;100101.74;;;26.73;25.38
80500;BME280;69823;54.120;-4.710;2023-06-26T09:46:51;100105.93;;;26.70;25.32
80500;BME280;69823;54.120;-4.710;2023-06-26T09:49:16;100107.42;;;26.46;25.26
80500;BME280;69823;54.120;-4.710;2023-06-26T09:51:42;100109.95;;;26.49;25.24
80500;BME280;69823;54.120;-4.710;2023-06-26T09:54:09;100110.89;;;26.70;25.24
80500;BME280;69823;54.120;-4.710;2023-06-26T09:56:33;100109.63;;;26.69;25.20
80500;BME280;69823;54.120;-4.710;2023-06-26T09:58:59;100112.06;;;26.66;25.21
80500;BME280;69823;54.120;-4.710;2023-06-26T10:01:24;100111.47;;;26.85;25.23
80500;BME280;69823;54.120;-4.710;2023-06-26T10:03:50;100116.52;;;26.37;25.23
80500;BME280;69823;54.120;-4.710;2023-06-26T10:06:18;100116.85;;;26.71;25.15
80500;BME280;69823;54.120;-4.710;2023-06-26T10:08:41;100116.13;;;26.71;25.12
80500;BME280;69823;54.120;-4.710;2023-06-26T10:11:08;100117.39;;;26.72;25.11
80500;BME280;69823;54.120;-4.710;2023-06-26T10:13:37;100114.43;;;26.76;25.06
80500;BME280;69823;54.120;-4.710;2023-06-26T10:15:57;100120.73;;;26.78;25.05
80500;BME280;69823;54.120;-4.710;2023-06-26T10:18:24;100123.39;;;26.74;25.07
80500;BME280;69823;54.120;-4.710;2023-06-26T10:20:48;100121.20;;;26.62;25.15
80500;BME280;69823;54.120;-4.710;2023-06-26T10:23:14;100133.11;;;26.58;25.20
80500;BME280;69823;54.120;-4.710;2023-06-26T10:25:41;100134.59;;;26.32;25.23
80500;BME280;69823;54.120;-4.710;2023-06-26T10:28:05;100140.21;;;26.59;25.19
80500;BME280;69823;54.120;-4.710;2023-06-26T10:30:33;100149.77;;;26.67;25.11
80500;BME280;69823;54.120;-4.710;2023-06-26T10:32:55;100148.71;;;26.38;25.15
80500;BME280;69823;54.120;-4.710;2023-06-26T10:35:21;100155.25;;;26.65;25.14
80500;BME280;69823;54.120;-4.710;2023-06-26T10:37:47;100153.50;;;26.88;25.13
80500;BME280;69823;54.120;-4.710;2023-06-26T10:40:12;100149.44;;;26.61;25.14
80500;BME280;69823;54.120;-4.710;2023-06-26T10:42:38;100153.78;;;26.59;25.16
80500;BME280;69823;54.120;-4.710;2023-06-26T10:45:09;100148.81;;;26.60;25.16
80500;BME280;69823;54.120;-4.710;2023-06-26T10:47:30;100159.71;;;26.35;25.17
80500;BME280;69823;54.120;-4.710;2023-06-26T10:49:54;100164.16;;;26.63;25.13
80500;BME280;69823;54.120;-4.710;2023-06-26T10:52:19;100165.71;;;26.65;25.10
80500;BME280;69823;54.120;-4.710;2023-06-26T10:54:45;100160.55;;;26.59;25.15
80500;BME280;69823;54.120;-4.710;2023-06-26T10:57:10;100158.62;;;26.56;25.15
80500;BME280;69823;54.120;-4.710;2023-06-26T10:59:39;100166.57;;;26.58;25.13
80500;BME280;69823;54.120;-4.710;2023-06-26T11:02:04;100168.79;;;26.59;25.13
80500;BME280;69823;54.120;-4.710;2023-06-26T11:04:37;100174.48;;;26.34;25.14
80500;BME280;69823;54.120;-4.710;2023-06-26T11:09:23;100169.82;;;26.56;25.11
80500;BME280;69823;54.120;-4.710;2023-06-26T11:11:55;100178.11;;;26.49;25.19
80500;BME280;69823;54.120;-4.710;2023-06-26T11:14:10;100181.41;;;26.51;25.20
80500;BME280;69823;54.120;-4.710;2023-06-26T11:16:34;100183.87;;;26.52;25.18
80500;BME280;69823;54.120;-4.710;2023-06-26T11:19:00;100184.71;;;26.53;25.22
80500;BME280;69823;54.120;-4.710;2023-06-26T11:21:25;100186.60;;;26.56;25.25
80500;BME280;69823;54.120;-4.710;2023-06-26T11:23:51;100185.95;;;26.48;25.35
80500;BME280;69823;54.120;-4.710;2023-06-26T11:26:17;100180.59;;;26.55;25.29
80500;BME280;69823;54.120;-4.710;2023-06-26T11:28:47;100182.70;;;26.77;25.28
80500;BME280;69823;54.120;-4.710;2023-06-26T11:31:06;100183.11;;;26.59;25.22
80500;BME280;69823;54.120;-4.710;2023-06-26T11:33:31;100187.95;;;26.44;25.33
80500;BME280;69823;54.120;-4.710;2023-06-26T11:38:22;100188.33;;;26.46;25.32
80500;BME280;69823;54.120;-4.710;2023-06-26T11:40:48;100192.72;;;26.74;25.27
80500;BME280;69823;54.120;-4.710;2023-06-26T11:43:12;100192.56;;;26.56;25.19
80500;BME280;69823;54.120;-4.710;2023-06-26T11:45:39;100191.70;;;26.82;25.14
80500;BME280;69823;54.120;-4.710;2023-06-26T11:48:04;100198.53;;;26.57;25.15
80500;BME280;69823;54.120;-4.710;2023-06-26T11:50:29;100206.11;;;26.39;25.10
80500;BME280;69823;54.120;-4.710;2023-06-26T11:52:54;100197.58;;;26.59;25.11
80500;BME280;69823;54.120;-4.710;2023-06-26T11:55:20;100205.52;;;26.52;25.18
80500;BME280;69823;54.120;-4.710;2023-06-26T11:57:48;100209.48;;;26.74;25.20
80500;BME280;69823;54.120;-4.710;2023-06-26T12:00:12;100203.98;;;26.30;25.17
80500;BME280;69823;54.120;-4.710;2023-06-26T12:02:37;100204.72;;;26.55;25.14
80500;BME280;69823;54.120;-4.710;2023-06-26T12:05:02;100203.38;;;26.28;25.16
80500;BME280;69823;54.120;-4.710;2023-06-26T12:07:27;100205.25;;;26.49;25.19
80500;BME280;69823;54.120;-4.710;2023-06-26T12:09:53;100202.41;;;26.73;25.19
80500;BME280;69823;54.120;-4.710;2023-06-26T12:12:18;100207.72;;;26.47;25.21
80500;BME280;69823;54.120;-4.710;2023-06-26T12:14:43;100213.13;;;26.46;25.23
80500;BME280;69823;54.120;-4.710;2023-06-26T12:17:10;100209.79;;;26.46;25.21
80500;BME280;69823;54.120;-4.710;2023-06-26T12:19:36;100206.50;;;26.46;25.19
80500;BME280;69823;54.120;-4.710;2023-06-26T12:21:59;100207.63;;;26.41;25.23
80500;BME280;69823;54.120;-4.710;2023-06-26T12:24:24;100209.60;;;26.36;25.25
80500;BME280;69823;54.120;-4.710;2023-06-26T12:26:52;100212.24;;;26.48;25.24
80500;BME280;69823;54.120;-4.710;2023-06-26T12:29:16;100210.02;;;26.65;25.03
80500;BME280;69823;54.120;-4.710;2023-06-26T12:31:41;100215.53;;;26.70;24.92
80500;BME280;69823;54.120;-4.710;2023-06-26T12:34:09;100217.51;;;26.94;24.89
80500;BME280;69823;54.120;-4.710;2023-06-26T12:36:39;100215.14;;;26.71;24.90
80500;BME280;69823;54.120;-4.710;2023-06-26T12:39:00;100222.46;;;26.93;24.93
80500;BME280;69823;54.120;-4.710;2023-06-26T12:41:24;100222.81;;;26.66;24.95